sensor_id;sensor_type;location;lat;lon;timestamp;pressure;altitude;pressure_sealevel;temperature;humidity
64616;BME280;51027;42.162;24.754;2023-06-10T00:02:10;99175.38;;;18.74;100.00
64616;BME280;51027;42.162;24.754;2023-06-10T00:04:35;99178.38;;;18.69;100.00
64616;BME280;51027;42.162;24.754;2023-06-10T00:07:05;99171.00;;;18.50;100.00
64616;BME280;51027;42.162;24.754;2023-06-10T00:09:37;99165.19;;;18.45;100.00
64616;BME280;51027;42.162;24.754;2023-06-10T00:12:06;99181.16;;;18.56;100.00
64616;BME280;51027;42.162;24.754;2023-06-10T00:14:42;99161.22;;;18.39;100.00
64616;BME280;51027;42.162;24.754;2023-06-10T00:17:07;99182.75;;;18.48;100.00
64616;BME280;51027;42.162;24.754;2023-06-10T00:19:34;99179.63;;;18.20;100.00
64616;BME280;51027;42.162;24.754;2023-06-10T00:22:00;99176.84;;;18.33;100.00
64616;BME280;51027;42.162;24.754;2023-06-10T00:24:26;99167.38;;;18.29;100.00
64616;BME280;51027;42.162;24.754;2023-06-10T00:26:51;99173.16;;;18.56;100.00
64616;BME280;51027;42.162;24.754;2023-06-10T00:29:16;99149.34;;;18.10;100.00
64616;BME280;51027;42.162;24.754;2023-06-10T00:31:43;99167.16;;;18.09;100.00
64616;BME280;51027;42.162;24.754;2023-06-10T00:34:08;99160.72;;;18.12;100.00
64616;BME280;51027;42.162;24.754;2023-06-10T00:36:34;99180.81;;;18.38;100.00
64616;BME280;51027;42.162;24.754;2023-06-10T00:39:01;99160.97;;;18.20;100.00
64616;BME280;51027;42.162;24.754;2023-06-10T00:41:26;99178.00;;;17.95;100.00
64616;BME280;51027;42.162;24.754;2023-06-10T00:43:52;99176.13;;;18.08;100.00
64616;BME280;51027;42.162;24.754;2023-06-10T00:46:17;99175.97;;;17.99;100.00
64616;BME280;51027;42.162;24.754;2023-06-10T00:48:45;99178.41;;;18.02;100.00
64616;BME280;51027;42.162;24.754;2023-06-10T00:51:10;99133.31;;;17.76;100.00
64616;BME280;51027;42.162;24.754;2023-06-10T00:53:39;99171.25;;;18.02;100.00
64616;BME280;51027;42.162;24.754;2023-06-10T00:56:06;99161.31;;;17.93;100.00
64616;BME280;51027;42.162;24.754;2023-06-10T00:58:32;99134.16;;;17.77;100.00
64616;BME280;51027;42.162;24.754;2023-06-10T01:00:57;99170.28;;;18.14;100.00
64616;BME280;51027;42.162;24.754;2023-06-10T01:03:23;99150.19;;;18.10;100.00
64616;BME280;51027;42.162;24.754;2023-06-10T01:05:58;99173.19;;;18.11;100.00
64616;BME280;51027;42.162;24.754;2023-06-10T01:09:13;99184.69;;;18.34;100.00
64616;BME280;51027;42.162;24.754;2023-06-10T01:12:01;99177.44;;;18.36;100.00
64616;BME280;51027;42.162;24.754;2023-06-10T01:14:29;99191.25;;;18.41;100.00
64616;BME280;51027;42.162;24.754;2023-06-10T01:16:57;99172.81;;;18.38;100.00
64616;BME280;51027;42.162;24.754;2023-06-10T01:19:23;99192.09;;;18.42;100.00
64616;BME280;51027;42.162;24.754;2023-06-10T01:21:49;99188.59;;;18.41;100.00
64616;BME280;51027;42.162;24.754;2023-06-10T01:24:15;99186.38;;;18.47;100.00
64616;BME280;51027;42.162;24.754;2023-06-10T01:26:45;99184.22;;;18.40;100.00
64616;BME280;51027;42.162;24.754;2023-06-10T01:29:23;99185.81;;;18.32;100.00
64616;BME280;51027;42.162;24.754;2023-06-10T01:32:02;99186.03;;;18.29;100.00
64616;BME280;51027;42.162;24.754;2023-06-10T01:34:30;99175.28;;;18.19;100.00
64616;BME280;51027;42.162;24.754;2023-06-10T01:36:57;99171.25;;;18.13;100.00
64616;BME280;51027;42.162;24.754;2023-06-10T01:39:24;99154.16;;;17.94;100.00
64616;BME280;51027;42.162;24.754;2023-06-10T01:41:51;99195.75;;;18.19;100.00
64616;BME280;51027;42.162;24.754;2023-06-10T01:44:21;99176.13;;;18.20;100.00
64616;BME280;51027;42.162;24.754;2023-06-10T01:46:47;99189.66;;;18.28;100.00
64616;BME280;51027;42.162;24.754;2023-06-10T01:49:12;99188.09;;;18.25;100.00
64616;BME280;51027;42.162;24.754;2023-06-10T01:51:38;99185.44;;;18.25;100.00
64616;BME280;51027;42.162;24.754;2023-06-10T01:54:04;99188.34;;;18.22;100.00
64616;BME280;51027;42.162;24.754;2023-06-10T01:56:30;99185.44;;;18.25;100.00
64616;BME280;51027;42.162;24.754;2023-06-10T01:58:56;99168.84;;;18.22;100.00
64616;BME280;51027;42.162;24.754;2023-06-10T02:01:28;99189.19;;;18.34;100.00
64616;BME280;51027;42.162;24.754;2023-06-10T02:03:53;99188.09;;;18.36;100.00
64616;BME280;51027;42.162;24.754;2023-06-10T02:06:19;99186.28;;;18.37;100.00
64616;BME280;51027;42.162;24.754;2023-06-10T02:08:44;99184.09;;;18.42;100.00
64616;BME280;51027;42.162;24.754;2023-06-10T02:11:10;99190.03;;;18.46;100.00
64616;BME280;51027;42.162;24.754;2023-06-10T02:13:35;99180.59;;;18.41;100.00
64616;BME280;51027;42.162;24.754;2023-06-10T02:16:01;99193.41;;;18.48;100.00
64616;BME280;51027;42.162;24.754;2023-06-10T02:18:28;99189.19;;;18.45;100.00
64616;BME280;51027;42.162;24.754;2023-06-10T02:20:54;99198.88;;;18.57;100.00
64616;BME280;51027;42.162;24.754;2023-06-10T02:23:19;99203.97;;;18.60;100.00
64616;BME280;51027;42.162;24.754;2023-06-10T02:25:45;99200.47;;;18.60;100.00
64616;BME280;51027;42.162;24.754;2023-06-10T02:28:12;99198.28;;;18.65;100.00
64616;BME280;51027;42.162;24.754;2023-06-10T02:30:41;99195.97;;;18.60;100.00
64616;BME280;51027;42.162;24.754;2023-06-10T02:33:07;99156.72;;;18.40;100.00
64616;BME280;51027;42.162;24.754;2023-06-10T02:35:36;99195.00;;;18.50;100.00
64616;BME280;51027;42.162;24.754;2023-06-10T02:38:02;99198.41;;;18.52;100.00
64616;BME280;51027;42.162;24.754;2023-06-10T02:40:27;99202.25;;;18.48;100.00
64616;BME280;51027;42.162;24.754;2023-06-10T02:42:53;99179.63;;;18.31;100.00
64616;BME280;51027;42.162;24.754;2023-06-10T02:45:18;99148.50;;;18.09;100.00
64616;BME280;51027;42.162;24.754;2023-06-10T02:47:44;99203.00;;;18.50;100.00
64616;BME280;51027;42.162;24.754;2023-06-10T02:50:09;99207.00;;;18.56;100.00
64616;BME280;51027;42.162;24.754;2023-06-10T02:52:35;99176.94;;;18.42;100.00
64616;BME280;51027;42.162;24.754;2023-06-10T02:55:00;99199.13;;;18.54;100.00
64616;BME280;51027;42.162;24.754;2023-06-10T02:57:26;99212.06;;;18.59;100.00
64616;BME280;51027;42.162;24.754;2023-06-10T02:59:51;99178.41;;;18.35;100.00
64616;BME280;51027;42.162;24.754;2023-06-10T03:02:18;99204.59;;;18.53;100.00
64616;BME280;51027;42.162;24.754;2023-06-10T03:04:44;99210.88;;;18.63;100.00
64616;BME280;51027;42.162;24.754;2023-06-10T03:07:10;99202.75;;;18.53;100.00
64616;BME280;51027;42.162;24.754;2023-06-10T03:09:36;99221.53;;;18.63;100.00
64616;BME280;51027;42.162;24.754;2023-06-10T03:12:02;99186.53;;;18.45;100.00
64616;BME280;51027;42.162;24.754;2023-06-10T03:14:27;99223.59;;;18.48;100.00
64616;BME280;51027;42.162;24.754;2023-06-10T03:16:53;99228.47;;;18.54;100.00
64616;BME280;51027;42.162;24.754;2023-06-10T03:19:18;99224.81;;;18.55;100.00
64616;BME280;51027;42.162;24.754;2023-06-10T03:21:49;99180.81;;;18.38;100.00
64616;BME280;51027;42.162;24.754;2023-06-10T03:24:15;99219.13;;;18.60;100.00
64616;BME280;51027;42.162;24.754;2023-06-10T03:26:41;99218.50;;;18.56;100.00
64616;BME280;51027;42.162;24.754;2023-06-10T03:29:07;99219.47;;;18.55;100.00
64616;BME280;51027;42.162;24.754;2023-06-10T03:31:32;99225.78;;;18.54;100.00
64616;BME280;51027;42.162;24.754;2023-06-10T03:33:57;99195.63;;;18.42;100.00
64616;BME280;51027;42.162;24.754;2023-06-10T03:36:23;99222.75;;;18.59;100.00
64616;BME280;51027;42.162;24.754;2023-06-10T03:38:49;99204.59;;;18.53;100.00
64616;BME280;51027;42.162;24.754;2023-06-10T03:41:17;99219.97;;;18.60;100.00
64616;BME280;51027;42.162;24.754;2023-06-10T03:43:42;99215.59;;;18.59;100.00
64616;BME280;51027;42.162;24.754;2023-06-10T03:46:09;99192.94;;;18.42;100.00
64616;BME280;51027;42.162;24.754;2023-06-10T03:48:35;99223.38;;;18.62;100.00
64616;BME280;51027;42.162;24.754;2023-06-10T03:51:02;99208.56;;;18.58;100.00
64616;BME280;51027;42.162;24.754;2023-06-10T03:53:27;99206.28;;;18.65;100.00
64616;BME280;51027;42.162;24.754;2023-06-10T03:55:53;99220.47;;;18.65;100.00
64616;BME280;51027;42.162;24.754;2023-06-10T03:58:18;99200.81;;;18.55;100.00
64616;BME280;51027;42.162;24.754;2023-06-10T04:00:44;99215.75;;;18.80;100.00
64616;BME280;51027;42.162;24.754;2023-06-10T04:03:10;99208.59;;;18.81;100.00
64616;BME280;51027;42.162;24.754;2023-06-10T04:05:40;99217.91;;;18.86;100.00
64616;BME280;51027;42.162;24.754;2023-06-10T04:08:07;99204.09;;;18.81;100.00
64616;BME280;51027;42.162;24.754;2023-06-10T04:10:32;99224.69;;;19.02;100.00
64616;BME280;51027;42.162;24.754;2023-06-10T04:12:58;99226.13;;;19.06;100.00
64616;BME280;51027;42.162;24.754;2023-06-10T04:15:25;99216.31;;;18.95;100.00
64616;BME280;51027;42.162;24.754;2023-06-10T04:17:50;99226.13;;;19.06;100.00
64616;BME280;51027;42.162;24.754;2023-06-10T04:20:16;99216.06;;;18.98;100.00
64616;BME280;51027;42.162;24.754;2023-06-10T04:22:41;99205.88;;;19.03;100.00
64616;BME280;51027;42.162;24.754;2023-06-10T04:25:09;99205.22;;;19.22;100.00
64616;BME280;51027;42.162;24.754;2023-06-10T04:27:35;99205.88;;;19.35;100.00
64616;BME280;51027;42.162;24.754;2023-06-10T04:30:01;99213.13;;;19.44;100.00
64616;BME280;51027;42.162;24.754;2023-06-10T04:32:26;99212.78;;;19.38;100.00
64616;BME280;51027;42.162;24.754;2023-06-10T04:34:52;99227.94;;;19.37;100.00
64616;BME280;51027;42.162;24.754;2023-06-10T04:37:17;99214.91;;;19.55;100.00
64616;BME280;51027;42.162;24.754;2023-06-10T04:39:43;99204.56;;;19.50;100.00
64616;BME280;51027;42.162;24.754;2023-06-10T04:42:09;99203.25;;;19.56;100.00
64616;BME280;51027;42.162;24.754;2023-06-10T04:44:34;99187.13;;;19.46;100.00
64616;BME280;51027;42.162;24.754;2023-06-10T04:46:59;99207.19;;;19.73;100.00
64616;BME280;51027;42.162;24.754;2023-06-10T04:49:25;99206.00;;;19.66;100.00
64616;BME280;51027;42.162;24.754;2023-06-10T04:51:50;99209.19;;;19.80;100.00
64616;BME280;51027;42.162;24.754;2023-06-10T04:54:16;99204.19;;;19.87;100.00
64616;BME280;51027;42.162;24.754;2023-06-10T04:56:42;99165.78;;;19.67;100.00
64616;BME280;51027;42.162;24.754;2023-06-10T04:59:07;99194.53;;;19.96;100.00
64616;BME280;51027;42.162;24.754;2023-06-10T05:01:33;99151.94;;;19.73;100.00
64616;BME280;51027;42.162;24.754;2023-06-10T05:03:58;99181.53;;;19.91;100.00
64616;BME280;51027;42.162;24.754;2023-06-10T05:06:23;99204.31;;;20.06;100.00
64616;BME280;51027;42.162;24.754;2023-06-10T05:08:52;99216.41;;;20.10;100.00
64616;BME280;51027;42.162;24.754;2023-06-10T05:11:17;99217.03;;;20.14;100.00
64616;BME280;51027;42.162;24.754;2023-06-10T05:13:42;99217.88;;;20.14;100.00
64616;BME280;51027;42.162;24.754;2023-06-10T05:16:09;99208.59;;;20.19;100.00
64616;BME280;51027;42.162;24.754;2023-06-10T05:18:35;99181.53;;;20.12;100.00
64616;BME280;51027;42.162;24.754;2023-06-10T05:21:01;99199.75;;;20.28;99.92
64616;BME280;51027;42.162;24.754;2023-06-10T05:23:27;99180.00;;;20.19;100.00
64616;BME280;51027;42.162;24.754;2023-06-10T05:25:52;99204.03;;;20.40;100.00
64616;BME280;51027;42.162;24.754;2023-06-10T05:28:18;99212.84;;;20.52;100.00
64616;BME280;51027;42.162;24.754;2023-06-10T05:30:43;99213.75;;;20.41;99.52
64616;BME280;51027;42.162;24.754;2023-06-10T05:33:09;99205.13;;;20.28;98.79
64616;BME280;51027;42.162;24.754;2023-06-10T05:35:34;99203.69;;;20.45;96.15
64616;BME280;51027;42.162;24.754;2023-06-10T05:38:00;99207.78;;;20.28;98.03
64616;BME280;51027;42.162;24.754;2023-06-10T05:40:25;99199.00;;;20.16;98.10
64616;BME280;51027;42.162;24.754;2023-06-10T05:42:50;99211.81;;;20.22;97.73
64616;BME280;51027;42.162;24.754;2023-06-10T05:45:16;99217.13;;;20.33;98.21
64616;BME280;51027;42.162;24.754;2023-06-10T05:47:41;99210.59;;;20.26;97.46
64616;BME280;51027;42.162;24.754;2023-06-10T05:50:07;99191.94;;;20.36;96.66
64616;BME280;51027;42.162;24.754;2023-06-10T05:52:34;99217.72;;;20.16;97.06
64616;BME280;51027;42.162;24.754;2023-06-10T05:55:00;99222.28;;;20.25;96.94
64616;BME280;51027;42.162;24.754;2023-06-10T05:57:25;99213.00;;;20.29;97.88
64616;BME280;51027;42.162;24.754;2023-06-10T05:59:51;99209.19;;;20.53;97.18
64616;BME280;51027;42.162;24.754;2023-06-10T06:02:16;99202.41;;;20.49;97.30
64616;BME280;51027;42.162;24.754;2023-06-10T06:04:42;99225.41;;;20.61;97.36
64616;BME280;51027;42.162;24.754;2023-06-10T06:07:07;99208.34;;;20.52;97.90
64616;BME280;51027;42.162;24.754;2023-06-10T06:09:33;99216.84;;;20.67;97.33
64616;BME280;51027;42.162;24.754;2023-06-10T06:11:58;99234.31;;;20.71;97.20
64616;BME280;51027;42.162;24.754;2023-06-10T06:14:23;99222.06;;;20.68;97.17
64616;BME280;51027;42.162;24.754;2023-06-10T06:16:49;99230.53;;;20.74;97.29
64616;BME280;51027;42.162;24.754;2023-06-10T06:19:14;99236.16;;;20.70;98.98
64616;BME280;51027;42.162;24.754;2023-06-10T06:21:41;99193.84;;;20.45;99.52
64616;BME280;51027;42.162;24.754;2023-06-10T06:24:06;99229.69;;;20.73;100.00
64616;BME280;51027;42.162;24.754;2023-06-10T06:26:32;99226.94;;;20.84;99.56
64616;BME280;51027;42.162;24.754;2023-06-10T06:28:57;99207.75;;;20.89;98.99
64616;BME280;51027;42.162;24.754;2023-06-10T06:31:22;99231.59;;;21.02;96.23
64616;BME280;51027;42.162;24.754;2023-06-10T06:33:48;99219.66;;;21.06;94.75
64616;BME280;51027;42.162;24.754;2023-06-10T06:36:13;99225.97;;;21.05;94.61
64616;BME280;51027;42.162;24.754;2023-06-10T06:38:39;99205.81;;;21.10;95.33
64616;BME280;51027;42.162;24.754;2023-06-10T06:41:04;99212.63;;;21.34;94.80
64616;BME280;51027;42.162;24.754;2023-06-10T06:43:32;99200.03;;;21.15;95.52
64616;BME280;51027;42.162;24.754;2023-06-10T06:45:57;99186.84;;;21.42;93.90
64616;BME280;51027;42.162;24.754;2023-06-10T06:48:23;99204.75;;;21.61;92.34
64616;BME280;51027;42.162;24.754;2023-06-10T06:50:48;99200.78;;;21.55;91.13
64616;BME280;51027;42.162;24.754;2023-06-10T06:53:14;99205.44;;;21.82;89.93
64616;BME280;51027;42.162;24.754;2023-06-10T06:55:40;99211.06;;;21.99;89.59
64616;BME280;51027;42.162;24.754;2023-06-10T06:58:05;99210.06;;;22.09;88.31
64616;BME280;51027;42.162;24.754;2023-06-10T07:00:31;99194.13;;;22.08;89.16
64616;BME280;51027;42.162;24.754;2023-06-10T07:02:56;99205.31;;;22.40;87.14
64616;BME280;51027;42.162;24.754;2023-06-10T07:05:22;99189.81;;;22.62;85.32
64616;BME280;51027;42.162;24.754;2023-06-10T07:07:48;99197.34;;;22.86;84.57
64616;BME280;51027;42.162;24.754;2023-06-10T07:10:18;99188.94;;;22.71;83.53
64616;BME280;51027;42.162;24.754;2023-06-10T07:12:45;99174.41;;;22.91;81.96
64616;BME280;51027;42.162;24.754;2023-06-10T07:15:10;99188.88;;;23.26;81.04
64616;BME280;51027;42.162;24.754;2023-06-10T07:17:36;99191.16;;;23.03;81.43
64616;BME280;51027;42.162;24.754;2023-06-10T07:20:01;99194.31;;;23.16;82.72
64616;BME280;51027;42.162;24.754;2023-06-10T07:22:27;99183.78;;;23.05;82.02
64616;BME280;51027;42.162;24.754;2023-06-10T07:24:52;99184.97;;;23.20;81.42
64616;BME280;51027;42.162;24.754;2023-06-10T07:27:19;99172.50;;;23.37;82.11
64616;BME280;51027;42.162;24.754;2023-06-10T07:29:45;99172.75;;;23.44;81.73
64616;BME280;51027;42.162;24.754;2023-06-10T07:32:10;99174.66;;;23.51;80.56
64616;BME280;51027;42.162;24.754;2023-06-10T07:34:36;99180.19;;;23.68;78.90
64616;BME280;51027;42.162;24.754;2023-06-10T07:37:01;99173.94;;;23.85;77.97
64616;BME280;51027;42.162;24.754;2023-06-10T07:39:26;99178.81;;;23.64;76.23
64616;BME280;51027;42.162;24.754;2023-06-10T07:41:52;99178.13;;;24.05;75.24
64616;BME280;51027;42.162;24.754;2023-06-10T07:44:19;99168.59;;;24.19;74.68
64616;BME280;51027;42.162;24.754;2023-06-10T07:46:44;99180.81;;;24.05;73.18
64616;BME280;51027;42.162;24.754;2023-06-10T07:49:10;99177.22;;;23.97;73.37
64616;BME280;51027;42.162;24.754;2023-06-10T07:51:35;99159.53;;;23.68;73.55
64616;BME280;51027;42.162;24.754;2023-06-10T07:54:01;99158.59;;;24.03;72.35
64616;BME280;51027;42.162;24.754;2023-06-10T07:56:27;99174.41;;;24.06;72.21
64616;BME280;51027;42.162;24.754;2023-06-10T07:58:52;99137.38;;;24.26;73.12
64616;BME280;51027;42.162;24.754;2023-06-10T08:01:18;99179.19;;;24.21;71.58
64616;BME280;51027;42.162;24.754;2023-06-10T08:03:43;99174.03;;;24.53;72.05
64616;BME280;51027;42.162;24.754;2023-06-10T08:06:09;99154.34;;;24.61;70.21
64616;BME280;51027;42.162;24.754;2023-06-10T08:08:36;99160.47;;;24.79;69.46
64616;BME280;51027;42.162;24.754;2023-06-10T08:11:07;99165.75;;;24.97;68.75
64616;BME280;51027;42.162;24.754;2023-06-10T08:13:32;99165.28;;;25.02;68.01
64616;BME280;51027;42.162;24.754;2023-06-10T08:15:58;99172.19;;;24.62;66.16
64616;BME280;51027;42.162;24.754;2023-06-10T08:18:23;99165.50;;;24.66;67.61
64616;BME280;51027;42.162;24.754;2023-06-10T08:20:49;99147.41;;;25.00;67.06
64616;BME280;51027;42.162;24.754;2023-06-10T08:23:14;99148.47;;;25.16;65.73
64616;BME280;51027;42.162;24.754;2023-06-10T08:25:40;99143.75;;;25.10;65.68
64616;BME280;51027;42.162;24.754;2023-06-10T08:28:05;99166.72;;;25.54;64.55
64616;BME280;51027;42.162;24.754;2023-06-10T08:30:31;99159.66;;;25.78;62.66
64616;BME280;51027;42.162;24.754;2023-06-10T08:32:56;99170.78;;;25.75;62.06
64616;BME280;51027;42.162;24.754;2023-06-10T08:35:21;99168.53;;;26.03;61.53
64616;BME280;51027;42.162;24.754;2023-06-10T08:37:47;99160.38;;;26.27;62.82
64616;BME280;51027;42.162;24.754;2023-06-10T08:40:12;99163.03;;;26.52;61.58
64616;BME280;51027;42.162;24.754;2023-06-10T08:42:40;99164.72;;;26.84;61.86
64616;BME280;51027;42.162;24.754;2023-06-10T08:45:12;99162.19;;;26.51;60.96
64616;BME280;51027;42.162;24.754;2023-06-10T08:47:43;99161.38;;;26.82;60.56
64616;BME280;51027;42.162;24.754;2023-06-10T08:50:09;99157.13;;;26.87;59.42
64616;BME280;51027;42.162;24.754;2023-06-10T08:52:36;99156.41;;;26.93;59.54
64616;BME280;51027;42.162;24.754;2023-06-10T08:55:18;99128.75;;;26.52;59.37
64616;BME280;51027;42.162;24.754;2023-06-10T08:57:48;99146.91;;;26.66;59.44
64616;BME280;51027;42.162;24.754;2023-06-10T09:00:15;99137.41;;;26.79;58.91
64616;BME280;51027;42.162;24.754;2023-06-10T09:02:41;99140.09;;;26.79;57.62
64616;BME280;51027;42.162;24.754;2023-06-10T09:05:08;99143.53;;;26.64;58.05
64616;BME280;51027;42.162;24.754;2023-06-10T09:07:35;99143.75;;;26.07;58.59
64616;BME280;51027;42.162;24.754;2023-06-10T09:10:01;99138.72;;;26.35;58.95
64616;BME280;51027;42.162;24.754;2023-06-10T09:12:29;99131.41;;;26.60;59.23
64616;BME280;51027;42.162;24.754;2023-06-10T09:14:55;99133.25;;;26.68;56.47
64616;BME280;51027;42.162;24.754;2023-06-10T09:17:20;99129.84;;;26.66;57.60
64616;BME280;51027;42.162;24.754;2023-06-10T09:19:46;99127.50;;;26.63;55.88
64616;BME280;51027;42.162;24.754;2023-06-10T09:22:12;99137.63;;;26.69;57.43
64616;BME280;51027;42.162;24.754;2023-06-10T09:24:38;99130.00;;;27.04;56.74
64616;BME280;51027;42.162;24.754;2023-06-10T09:27:06;99118.97;;;27.13;54.50
64616;BME280;51027;42.162;24.754;2023-06-10T09:29:44;99068.31;;;26.53;53.12
64616;BME280;51027;42.162;24.754;2023-06-10T09:32:10;99131.56;;;26.67;53.89
64616;BME280;51027;42.162;24.754;2023-06-10T09:34:36;99128.56;;;26.54;51.23
64616;BME280;51027;42.162;24.754;2023-06-10T09:37:02;99124.44;;;26.27;50.69
64616;BME280;51027;42.162;24.754;2023-06-10T09:39:27;99114.25;;;26.45;51.59
64616;BME280;51027;42.162;24.754;2023-06-10T09:41:52;99123.38;;;26.36;55.30
64616;BME280;51027;42.162;24.754;2023-06-10T09:44:20;99134.50;;;25.86;61.54
64616;BME280;51027;42.162;24.754;2023-06-10T09:46:47;99130.97;;;25.44;63.83
64616;BME280;51027;42.162;24.754;2023-06-10T09:49:13;99094.22;;;25.19;65.23
64616;BME280;51027;42.162;24.754;2023-06-10T09:51:53;99128.09;;;25.30;65.54
64616;BME280;51027;42.162;24.754;2023-06-10T09:54:22;99124.38;;;25.31;64.74
64616;BME280;51027;42.162;24.754;2023-06-10T09:56:49;99128.44;;;25.43;64.09
64616;BME280;51027;42.162;24.754;2023-06-10T09:59:15;99125.38;;;25.21;63.78
64616;BME280;51027;42.162;24.754;2023-06-10T10:01:41;99107.53;;;25.12;63.44
64616;BME280;51027;42.162;24.754;2023-06-10T10:04:06;99124.22;;;25.48;62.36
64616;BME280;51027;42.162;24.754;2023-06-10T10:06:32;99118.66;;;25.58;62.90
64616;BME280;51027;42.162;24.754;2023-06-10T10:08:57;99115.81;;;25.76;61.99
64616;BME280;51027;42.162;24.754;2023-06-10T10:11:23;99117.97;;;25.97;61.02
64616;BME280;51027;42.162;24.754;2023-06-10T10:13:51;99111.75;;;25.80;60.53
64616;BME280;51027;42.162;24.754;2023-06-10T10:16:19;99089.63;;;25.93;60.96
64616;BME280;51027;42.162;24.754;2023-06-10T10:18:55;99132.53;;;27.05;59.34
64616;BME280;51027;42.162;24.754;2023-06-10T10:21:26;99119.31;;;27.33;57.97
64616;BME280;51027;42.162;24.754;2023-06-10T10:24:01;99128.13;;;27.73;56.35
64616;BME280;51027;42.162;24.754;2023-06-10T10:26:29;99131.88;;;27.26;57.20
64616;BME280;51027;42.162;24.754;2023-06-10T10:31:27;99106.25;;;26.91;58.17
64616;BME280;51027;42.162;24.754;2023-06-10T10:33:58;99120.69;;;26.75;59.14
64616;BME280;51027;42.162;24.754;2023-06-10T10:36:24;99122.72;;;26.73;57.30
64616;BME280;51027;42.162;24.754;2023-06-10T10:38:50;99126.09;;;26.75;57.18
64616;BME280;51027;42.162;24.754;2023-06-10T10:41:17;99117.31;;;26.73;57.14
64616;BME280;51027;42.162;24.754;2023-06-10T10:43:44;99107.22;;;26.98;57.76
64616;BME280;51027;42.162;24.754;2023-06-10T10:46:15;99101.44;;;27.47;56.82
64616;BME280;51027;42.162;24.754;2023-06-10T10:48:41;99084.28;;;27.54;54.89
64616;BME280;51027;42.162;24.754;2023-06-10T10:51:08;99092.34;;;27.63;55.00
64616;BME280;51027;42.162;24.754;2023-06-10T10:53:36;99110.31;;;27.18;54.89
64616;BME280;51027;42.162;24.754;2023-06-10T10:56:06;99104.84;;;27.03;55.08
64616;BME280;51027;42.162;24.754;2023-06-10T10:58:33;99078.53;;;26.66;56.00
64616;BME280;51027;42.162;24.754;2023-06-10T11:00:58;99107.59;;;26.87;56.62
64616;BME280;51027;42.162;24.754;2023-06-10T11:03:28;99106.38;;;26.66;57.29
64616;BME280;51027;42.162;24.754;2023-06-10T11:05:57;99108.47;;;26.56;57.30
64616;BME280;51027;42.162;24.754;2023-06-10T11:10:57;99100.53;;;26.55;57.62
64616;BME280;51027;42.162;24.754;2023-06-10T11:13:25;99090.72;;;26.14;57.46
64616;BME280;51027;42.162;24.754;2023-06-10T11:15:51;99107.66;;;26.00;57.78
64616;BME280;51027;42.162;24.754;2023-06-10T11:18:29;99103.00;;;25.78;58.41
64616;BME280;51027;42.162;24.754;2023-06-10T11:21:02;99102.63;;;25.73;58.07
64616;BME280;51027;42.162;24.754;2023-06-10T11:28:38;99083.13;;;26.18;54.29
64616;BME280;51027;42.162;24.754;2023-06-10T11:31:04;99060.97;;;26.31;54.08
64616;BME280;51027;42.162;24.754;2023-06-10T11:33:29;99091.38;;;26.64;53.23
64616;BME280;51027;42.162;24.754;2023-06-10T11:35:56;99031.75;;;26.65;52.72
64616;BME280;51027;42.162;24.754;2023-06-10T11:38:21;99081.50;;;27.25;52.67
64616;BME280;51027;42.162;24.754;2023-06-10T11:40:51;99083.69;;;27.30;52.23
64616;BME280;51027;42.162;24.754;2023-06-10T11:43:17;99074.50;;;27.39;53.26
64616;BME280;51027;42.162;24.754;2023-06-10T11:45:43;99064.25;;;27.26;54.86
64616;BME280;51027;42.162;24.754;2023-06-10T11:48:09;99071.72;;;27.24;52.94
64616;BME280;51027;42.162;24.754;2023-06-10T11:50:36;99045.22;;;26.96;53.54
64616;BME280;51027;42.162;24.754;2023-06-10T11:53:02;99069.09;;;27.16;54.06
64616;BME280;51027;42.162;24.754;2023-06-10T11:55:41;99058.00;;;27.63;55.11
64616;BME280;51027;42.162;24.754;2023-06-10T11:58:13;99059.16;;;27.69;54.29
64616;BME280;51027;42.162;24.754;2023-06-10T12:00:50;99059.03;;;27.62;52.19
64616;BME280;51027;42.162;24.754;2023-06-10T12:03:16;99042.47;;;27.95;51.90
64616;BME280;51027;42.162;24.754;2023-06-10T12:05:56;99032.09;;;27.83;51.96
64616;BME280;51027;42.162;24.754;2023-06-10T12:08:23;99056.84;;;27.80;51.74
64616;BME280;51027;42.162;24.754;2023-06-10T12:10:48;99060.28;;;27.74;52.16
64616;BME280;51027;42.162;24.754;2023-06-10T12:13:14;99056.00;;;27.80;51.30
64616;BME280;51027;42.162;24.754;2023-06-10T12:15:39;99047.88;;;27.80;51.52
64616;BME280;51027;42.162;24.754;2023-06-10T12:18:05;99045.84;;;27.82;52.80
64616;BME280;51027;42.162;24.754;2023-06-10T12:20:32;99035.38;;;27.94;52.22
64616;BME280;51027;42.162;24.754;2023-06-10T12:23:09;99044.78;;;28.12;51.02
64616;BME280;51027;42.162;24.754;2023-06-10T12:25:34;99037.13;;;28.16;50.57
64616;BME280;51027;42.162;24.754;2023-06-10T12:28:02;99036.66;;;28.12;51.32
64616;BME280;51027;42.162;24.754;2023-06-10T12:30:28;99030.56;;;28.25;51.39
64616;BME280;51027;42.162;24.754;2023-06-10T12:32:54;99032.41;;;28.54;49.44
64616;BME280;51027;42.162;24.754;2023-06-10T12:35:22;99011.59;;;28.40;50.09
64616;BME280;51027;42.162;24.754;2023-06-10T12:38:05;99025.00;;;28.63;51.09
64616;BME280;51027;42.162;24.754;2023-06-10T12:40:37;99011.59;;;28.40;49.10
64616;BME280;51027;42.162;24.754;2023-06-10T12:43:04;99015.97;;;27.90;50.13
64616;BME280;51027;42.162;24.754;2023-06-10T12:45:34;99014.91;;;27.62;49.53
64616;BME280;51027;42.162;24.754;2023-06-10T12:48:10;99005.22;;;27.82;50.73
64616;BME280;51027;42.162;24.754;2023-06-10T12:50:41;99004.09;;;28.06;52.61
64616;BME280;51027;42.162;24.754;2023-06-10T12:53:08;99010.72;;;27.59;53.57
64616;BME280;51027;42.162;24.754;2023-06-10T12:55:33;98986.78;;;27.18;54.39